sensor_id;sensor_type;location;lat;lon;timestamp;P1;durP1;ratioP1;P2;durP2;ratioP2
9801;SDS011;4940;50.900;4.672;2024-02-16T00:01:28;2.88;;;2.30;;
9801;SDS011;4940;50.900;4.672;2024-02-16T00:03:56;2.40;;;2.10;;
9801;SDS011;4940;50.900;4.672;2024-02-16T00:06:23;2.92;;;2.30;;
9801;SDS011;4940;50.900;4.672;2024-02-16T00:08:52;4.53;;;2.80;;
9801;SDS011;4940;50.900;4.672;2024-02-16T00:11:19;4.03;;;2.70;;
9801;SDS011;4940;50.900;4.672;2024-02-16T00:13:48;2.80;;;2.60;;
9801;SDS011;4940;50.900;4.672;2024-02-16T00:16:16;3.45;;;3.08;;
9801;SDS011;4940;50.900;4.672;2024-02-16T00:18:43;3.42;;;3.13;;
9801;SDS011;4940;50.900;4.672;2024-02-16T00:21:11;3.42;;;3.13;;
9801;SDS011;4940;50.900;4.672;2024-02-16T00:23:38;3.60;;;3.25;;
9801;SDS011;4940;50.900;4.672;2024-02-16T00:26:07;4.00;;;3.30;;
9801;SDS011;4940;50.900;4.672;2024-02-16T00:28:34;4.03;;;3.45;;
9801;SDS011;4940;50.900;4.672;2024-02-16T00:31:02;3.70;;;3.33;;
9801;SDS011;4940;50.900;4.672;2024-02-16T00:33:30;4.18;;;3.88;;
9801;SDS011;4940;50.900;4.672;2024-02-16T00:35:58;4.90;;;4.50;;
9801;SDS011;4940;50.900;4.672;2024-02-16T00:38:26;5.50;;;5.20;;
9801;SDS011;4940;50.900;4.672;2024-02-16T00:40:53;5.50;;;5.18;;
9801;SDS011;4940;50.900;4.672;2024-02-16T00:43:22;5.30;;;4.90;;
9801;SDS011;4940;50.900;4.672;2024-02-16T00:45:49;6.10;;;5.70;;
9801;SDS011;4940;50.900;4.672;2024-02-16T00:48:16;6.03;;;5.53;;
9801;SDS011;4940;50.900;4.672;2024-02-16T00:50:44;5.85;;;5.35;;
9801;SDS011;4940;50.900;4.672;2024-02-16T00:53:11;5.55;;;5.15;;
9801;SDS011;4940;50.900;4.672;2024-02-16T00:55:38;5.55;;;5.15;;
9801;SDS011;4940;50.900;4.672;2024-02-16T00:58:07;5.65;;;5.15;;
9801;SDS011;4940;50.900;4.672;2024-02-16T01:00:35;5.45;;;5.05;;
9801;SDS011;4940;50.900;4.672;2024-02-16T01:03:03;5.13;;;4.80;;
9801;SDS011;4940;50.900;4.672;2024-02-16T01:05:30;6.18;;;5.78;;
9801;SDS011;4940;50.900;4.672;2024-02-16T01:07:58;6.72;;;5.22;;
9801;SDS011;4940;50.900;4.672;2024-02-16T01:10:25;6.70;;;6.30;;
9801;SDS011;4940;50.900;4.672;2024-02-16T01:12:53;6.80;;;6.20;;
9801;SDS011;4940;50.900;4.672;2024-02-16T01:15:21;6.88;;;6.47;;
9801;SDS011;4940;50.900;4.672;2024-02-16T01:17:50;7.45;;;6.85;;
9801;SDS011;4940;50.900;4.672;2024-02-16T01:20:17;7.43;;;6.88;;
9801;SDS011;4940;50.900;4.672;2024-02-16T01:22:45;7.13;;;6.68;;
9801;SDS011;4940;50.900;4.672;2024-02-16T01:25:13;7.93;;;7.32;;
9801;SDS011;4940;50.900;4.672;2024-02-16T01:27:40;6.55;;;6.15;;
9801;SDS011;4940;50.900;4.672;2024-02-16T01:30:08;7.80;;;7.40;;
9801;SDS011;4940;50.900;4.672;2024-02-16T01:32:36;9.27;;;8.57;;
9801;SDS011;4940;50.900;4.672;2024-02-16T01:35:05;9.25;;;8.45;;
9801;SDS011;4940;50.900;4.672;2024-02-16T01:37:33;9.98;;;9.18;;
9801;SDS011;4940;50.900;4.672;2024-02-16T01:40:00;10.05;;;9.48;;
9801;SDS011;4940;50.900;4.672;2024-02-16T01:42:28;9.18;;;8.68;;
9801;SDS011;4940;50.900;4.672;2024-02-16T01:44:56;10.02;;;9.43;;
9801;SDS011;4940;50.900;4.672;2024-02-16T01:47:24;8.80;;;8.30;;
9801;SDS011;4940;50.900;4.672;2024-02-16T01:49:51;7.88;;;7.28;;
9801;SDS011;4940;50.900;4.672;2024-02-16T01:52:20;8.45;;;7.78;;
9801;SDS011;4940;50.900;4.672;2024-02-16T01:54:47;8.20;;;7.60;;
9801;SDS011;4940;50.900;4.672;2024-02-16T01:57:15;8.88;;;8.20;;
9801;SDS011;4940;50.900;4.672;2024-02-16T01:59:42;7.32;;;6.82;;
9801;SDS011;4940;50.900;4.672;2024-02-16T02:02:10;8.40;;;7.90;;
9801;SDS011;4940;50.900;4.672;2024-02-16T02:04:38;8.20;;;7.65;;
9801;SDS011;4940;50.900;4.672;2024-02-16T02:07:10;9.30;;;8.70;;
9801;SDS011;4940;50.900;4.672;2024-02-16T02:09:39;9.05;;;8.45;;
9801;SDS011;4940;50.900;4.672;2024-02-16T02:12:07;10.23;;;8.55;;
9801;SDS011;4940;50.900;4.672;2024-02-16T02:14:35;9.07;;;8.27;;
9801;SDS011;4940;50.900;4.672;2024-02-16T02:17:03;8.93;;;8.30;;
9801;SDS011;4940;50.900;4.672;2024-02-16T02:19:30;9.30;;;8.60;;
9801;SDS011;4940;50.900;4.672;2024-02-16T02:21:58;9.48;;;8.80;;
9801;SDS011;4940;50.900;4.672;2024-02-16T02:24:27;9.48;;;8.77;;
9801;SDS011;4940;50.900;4.672;2024-02-16T02:26:55;9.10;;;8.60;;
9801;SDS011;4940;50.900;4.672;2024-02-16T02:29:22;9.60;;;9.07;;
9801;SDS011;4940;50.900;4.672;2024-02-16T02:31:50;10.65;;;9.82;;
9801;SDS011;4940;50.900;4.672;2024-02-16T02:34:17;10.77;;;9.70;;
9801;SDS011;4940;50.900;4.672;2024-02-16T02:36:45;10.65;;;10.05;;
9801;SDS011;4940;50.900;4.672;2024-02-16T02:39:14;11.75;;;11.15;;
9801;SDS011;4940;50.900;4.672;2024-02-16T02:41:43;9.90;;;9.25;;
9801;SDS011;4940;50.900;4.672;2024-02-16T02:44:10;10.85;;;10.32;;
9801;SDS011;4940;50.900;4.672;2024-02-16T02:46:37;11.23;;;10.50;;
9801;SDS011;4940;50.900;4.672;2024-02-16T02:49:05;11.80;;;11.10;;
9801;SDS011;4940;50.900;4.672;2024-02-16T02:51:33;11.30;;;10.60;;
9801;SDS011;4940;50.900;4.672;2024-02-16T02:54:01;13.20;;;12.40;;
9801;SDS011;4940;50.900;4.672;2024-02-16T02:56:28;11.60;;;10.80;;
9801;SDS011;4940;50.900;4.672;2024-02-16T02:58:57;12.85;;;12.15;;
9801;SDS011;4940;50.900;4.672;2024-02-16T03:01:24;13.38;;;12.38;;
9801;SDS011;4940;50.900;4.672;2024-02-16T03:03:52;12.32;;;11.68;;
9801;SDS011;4940;50.900;4.672;2024-02-16T03:06:19;12.35;;;11.65;;
9801;SDS011;4940;50.900;4.672;2024-02-16T03:08:46;13.02;;;12.23;;
9801;SDS011;4940;50.900;4.672;2024-02-16T03:11:14;14.85;;;13.95;;
9801;SDS011;4940;50.900;4.672;2024-02-16T03:13:42;14.43;;;13.63;;
9801;SDS011;4940;50.900;4.672;2024-02-16T03:16:11;15.63;;;14.75;;
9801;SDS011;4940;50.900;4.672;2024-02-16T03:18:38;15.95;;;15.07;;
9801;SDS011;4940;50.900;4.672;2024-02-16T03:21:06;16.23;;;15.35;;
9801;SDS011;4940;50.900;4.672;2024-02-16T03:23:33;17.55;;;16.38;;
9801;SDS011;4940;50.900;4.672;2024-02-16T03:26:02;16.85;;;15.85;;
9801;SDS011;4940;50.900;4.672;2024-02-16T03:28:30;18.15;;;17.10;;
9801;SDS011;4940;50.900;4.672;2024-02-16T03:30:57;18.30;;;17.38;;
9801;SDS011;4940;50.900;4.672;2024-02-16T03:33:26;18.40;;;17.40;;
9801;SDS011;4940;50.900;4.672;2024-02-16T03:35:53;17.88;;;16.83;;
9801;SDS011;4940;50.900;4.672;2024-02-16T03:38:21;20.15;;;18.95;;
9801;SDS011;4940;50.900;4.672;2024-02-16T03:40:48;19.08;;;17.95;;
9801;SDS011;4940;50.900;4.672;2024-02-16T03:43:16;19.35;;;18.13;;
9801;SDS011;4940;50.900;4.672;2024-02-16T03:45:43;21.20;;;20.10;;
9801;SDS011;4940;50.900;4.672;2024-02-16T03:48:10;20.02;;;18.92;;
9801;SDS011;4940;50.900;4.672;2024-02-16T03:50:39;23.83;;;22.33;;
9801;SDS011;4940;50.900;4.672;2024-02-16T03:53:06;23.65;;;22.25;;
9801;SDS011;4940;50.900;4.672;2024-02-16T03:55:34;24.73;;;23.30;;
9801;SDS011;4940;50.900;4.672;2024-02-16T03:58:02;23.33;;;22.02;;
9801;SDS011;4940;50.900;4.672;2024-02-16T04:00:29;23.77;;;22.48;;
9801;SDS011;4940;50.900;4.672;2024-02-16T04:02:57;23.90;;;22.55;;
9801;SDS011;4940;50.900;4.672;2024-02-16T04:05:25;23.88;;;22.55;;
9801;SDS011;4940;50.900;4.672;2024-02-16T04:07:57;24.17;;;22.75;;
9801;SDS011;4940;50.900;4.672;2024-02-16T04:10:27;23.67;;;22.27;;
9801;SDS011;4940;50.900;4.672;2024-02-16T04:12:54;22.98;;;21.67;;
9801;SDS011;4940;50.900;4.672;2024-02-16T04:15:22;23.20;;;21.90;;
9801;SDS011;4940;50.900;4.672;2024-02-16T04:17:49;22.90;;;21.60;;
9801;SDS011;4940;50.900;4.672;2024-02-16T04:20:17;21.70;;;20.50;;
9801;SDS011;4940;50.900;4.672;2024-02-16T04:22:44;21.58;;;20.38;;
9801;SDS011;4940;50.900;4.672;2024-02-16T04:25:13;22.77;;;21.48;;
9801;SDS011;4940;50.900;4.672;2024-02-16T04:27:40;24.23;;;22.92;;
9801;SDS011;4940;50.900;4.672;2024-02-16T04:30:08;24.67;;;23.10;;
9801;SDS011;4940;50.900;4.672;2024-02-16T04:32:35;24.42;;;23.08;;
9801;SDS011;4940;50.900;4.672;2024-02-16T04:35:03;25.70;;;24.20;;
9801;SDS011;4940;50.900;4.672;2024-02-16T04:37:31;26.52;;;25.08;;
9801;SDS011;4940;50.900;4.672;2024-02-16T04:39:58;28.10;;;26.00;;
9801;SDS011;4940;50.900;4.672;2024-02-16T04:42:27;26.60;;;25.10;;
9801;SDS011;4940;50.900;4.672;2024-02-16T04:44:54;27.70;;;25.55;;
9801;SDS011;4940;50.900;4.672;2024-02-16T04:47:22;25.63;;;24.23;;
9801;SDS011;4940;50.900;4.672;2024-02-16T04:49:49;25.30;;;23.80;;
9801;SDS011;4940;50.900;4.672;2024-02-16T04:52:17;25.13;;;23.73;;
9801;SDS011;4940;50.900;4.672;2024-02-16T04:54:44;25.33;;;23.63;;
9801;SDS011;4940;50.900;4.672;2024-02-16T04:57:11;23.95;;;22.50;;
9801;SDS011;4940;50.900;4.672;2024-02-16T04:59:40;26.55;;;24.92;;
9801;SDS011;4940;50.900;4.672;2024-02-16T05:02:07;27.67;;;26.08;;
9801;SDS011;4940;50.900;4.672;2024-02-16T05:04:35;25.75;;;24.25;;
9801;SDS011;4940;50.900;4.672;2024-02-16T05:07:03;24.70;;;23.13;;
9801;SDS011;4940;50.900;4.672;2024-02-16T05:09:31;24.88;;;23.38;;
9801;SDS011;4940;50.900;4.672;2024-02-16T05:11:59;25.88;;;24.27;;
9801;SDS011;4940;50.900;4.672;2024-02-16T05:14:26;28.13;;;26.42;;
9801;SDS011;4940;50.900;4.672;2024-02-16T05:16:55;28.35;;;26.80;;
9801;SDS011;4940;50.900;4.672;2024-02-16T05:19:23;25.35;;;23.95;;
9801;SDS011;4940;50.900;4.672;2024-02-16T05:21:50;27.25;;;25.48;;
9801;SDS011;4940;50.900;4.672;2024-02-16T05:24:17;28.27;;;26.33;;
9801;SDS011;4940;50.900;4.672;2024-02-16T05:26:45;28.77;;;27.05;;
9801;SDS011;4940;50.900;4.672;2024-02-16T05:29:13;26.45;;;24.80;;
9801;SDS011;4940;50.900;4.672;2024-02-16T05:31:40;26.45;;;24.85;;
9801;SDS011;4940;50.900;4.672;2024-02-16T05:34:09;26.58;;;25.02;;
9801;SDS011;4940;50.900;4.672;2024-02-16T05:36:36;27.92;;;26.30;;
9801;SDS011;4940;50.900;4.672;2024-02-16T05:39:04;29.30;;;27.40;;
9801;SDS011;4940;50.900;4.672;2024-02-16T05:41:45;29.10;;;27.30;;
9801;SDS011;4940;50.900;4.672;2024-02-16T05:44:12;31.30;;;29.33;;
9801;SDS011;4940;50.900;4.672;2024-02-16T05:46:40;30.13;;;28.40;;
9801;SDS011;4940;50.900;4.672;2024-02-16T05:49:08;30.67;;;28.98;;
9801;SDS011;4940;50.900;4.672;2024-02-16T05:51:36;34.08;;;32.13;;
9801;SDS011;4940;50.900;4.672;2024-02-16T05:54:04;29.42;;;27.50;;
9801;SDS011;4940;50.900;4.672;2024-02-16T05:56:33;31.17;;;29.15;;
9801;SDS011;4940;50.900;4.672;2024-02-16T05:59:02;31.90;;;29.90;;
9801;SDS011;4940;50.900;4.672;2024-02-16T06:01:30;32.95;;;30.95;;
9801;SDS011;4940;50.900;4.672;2024-02-16T06:03:58;32.28;;;29.75;;
9801;SDS011;4940;50.900;4.672;2024-02-16T06:06:27;29.40;;;27.42;;
9801;SDS011;4940;50.900;4.672;2024-02-16T06:08:54;31.15;;;29.25;;
9801;SDS011;4940;50.900;4.672;2024-02-16T06:11:21;32.17;;;30.27;;
9801;SDS011;4940;50.900;4.672;2024-02-16T06:13:48;31.05;;;29.08;;
9801;SDS011;4940;50.900;4.672;2024-02-16T06:16:15;37.60;;;35.40;;
9801;SDS011;4940;50.900;4.672;2024-02-16T06:18:43;32.00;;;30.08;;
9801;SDS011;4940;50.900;4.672;2024-02-16T06:21:10;33.15;;;31.13;;
9801;SDS011;4940;50.900;4.672;2024-02-16T06:23:39;34.55;;;32.33;;
9801;SDS011;4940;50.900;4.672;2024-02-16T06:26:07;33.88;;;31.58;;
9801;SDS011;4940;50.900;4.672;2024-02-16T06:28:34;35.88;;;33.47;;
9801;SDS011;4940;50.900;4.672;2024-02-16T06:31:01;35.80;;;33.45;;
9801;SDS011;4940;50.900;4.672;2024-02-16T06:33:29;33.10;;;31.00;;
9801;SDS011;4940;50.900;4.672;2024-02-16T06:35:57;34.33;;;32.10;;
9801;SDS011;4940;50.900;4.672;2024-02-16T06:38:25;35.25;;;32.75;;
9801;SDS011;4940;50.900;4.672;2024-02-16T06:40:53;36.42;;;34.03;;
9801;SDS011;4940;50.900;4.672;2024-02-16T06:43:20;35.38;;;32.85;;
9801;SDS011;4940;50.900;4.672;2024-02-16T06:45:48;37.35;;;34.47;;
9801;SDS011;4940;50.900;4.672;2024-02-16T06:48:15;40.55;;;37.95;;
9801;SDS011;4940;50.900;4.672;2024-02-16T06:50:43;37.63;;;35.15;;
9801;SDS011;4940;50.900;4.672;2024-02-16T06:53:10;38.95;;;36.17;;
9801;SDS011;4940;50.900;4.672;2024-02-16T06:55:37;39.72;;;37.03;;
9801;SDS011;4940;50.900;4.672;2024-02-16T06:58:06;40.50;;;37.70;;
9801;SDS011;4940;50.900;4.672;2024-02-16T07:00:33;39.63;;;36.83;;
9801;SDS011;4940;50.900;4.672;2024-02-16T07:03:01;41.40;;;38.33;;
9801;SDS011;4940;50.900;4.672;2024-02-16T07:05:28;40.20;;;37.30;;
9801;SDS011;4940;50.900;4.672;2024-02-16T07:07:56;40.55;;;37.90;;
9801;SDS011;4940;50.900;4.672;2024-02-16T07:10:24;44.08;;;41.10;;
9801;SDS011;4940;50.900;4.672;2024-02-16T07:12:51;43.35;;;40.35;;
9801;SDS011;4940;50.900;4.672;2024-02-16T07:15:20;39.03;;;36.22;;
9801;SDS011;4940;50.900;4.672;2024-02-16T07:17:47;38.97;;;36.33;;
9801;SDS011;4940;50.900;4.672;2024-02-16T07:20:15;41.00;;;38.38;;
9801;SDS011;4940;50.900;4.672;2024-02-16T07:22:43;41.60;;;38.90;;
9801;SDS011;4940;50.900;4.672;2024-02-16T07:25:12;41.22;;;38.47;;
9801;SDS011;4940;50.900;4.672;2024-02-16T07:27:39;39.95;;;37.03;;
9801;SDS011;4940;50.900;4.672;2024-02-16T07:30:08;37.35;;;34.75;;
9801;SDS011;4940;50.900;4.672;2024-02-16T07:32:37;38.63;;;35.83;;
9801;SDS011;4940;50.900;4.672;2024-02-16T07:35:05;40.13;;;37.13;;
9801;SDS011;4940;50.900;4.672;2024-02-16T07:37:35;39.67;;;36.67;;
9801;SDS011;4940;50.900;4.672;2024-02-16T07:40:03;39.17;;;36.38;;
9801;SDS011;4940;50.900;4.672;2024-02-16T07:42:34;38.88;;;36.17;;
9801;SDS011;4940;50.900;4.672;2024-02-16T07:45:05;38.67;;;35.67;;
9801;SDS011;4940;50.900;4.672;2024-02-16T07:47:32;43.63;;;40.53;;
9801;SDS011;4940;50.900;4.672;2024-02-16T07:50:01;38.22;;;35.33;;
9801;SDS011;4940;50.900;4.672;2024-02-16T07:52:28;44.22;;;40.92;;
9801;SDS011;4940;50.900;4.672;2024-02-16T07:54:56;42.97;;;39.88;;
9801;SDS011;4940;50.900;4.672;2024-02-16T07:57:23;42.38;;;39.28;;
9801;SDS011;4940;50.900;4.672;2024-02-16T07:59:51;41.88;;;38.80;;
9801;SDS011;4940;50.900;4.672;2024-02-16T08:02:19;44.47;;;41.08;;
9801;SDS011;4940;50.900;4.672;2024-02-16T08:04:46;39.28;;;36.30;;
9801;SDS011;4940;50.900;4.672;2024-02-16T08:07:15;44.40;;;41.05;;
9801;SDS011;4940;50.900;4.672;2024-02-16T08:09:43;39.80;;;36.85;;
9801;SDS011;4940;50.900;4.672;2024-02-16T08:12:10;41.42;;;38.28;;
9801;SDS011;4940;50.900;4.672;2024-02-16T08:14:38;40.65;;;37.40;;
9801;SDS011;4940;50.900;4.672;2024-02-16T08:17:19;39.88;;;36.75;;
9801;SDS011;4940;50.900;4.672;2024-02-16T08:19:51;41.53;;;38.42;;
9801;SDS011;4940;50.900;4.672;2024-02-16T08:22:19;43.00;;;39.75;;
9801;SDS011;4940;50.900;4.672;2024-02-16T08:24:47;42.67;;;39.38;;
9801;SDS011;4940;50.900;4.672;2024-02-16T08:27:15;42.42;;;38.95;;
9801;SDS011;4940;50.900;4.672;2024-02-16T08:29:42;43.20;;;39.83;;
9801;SDS011;4940;50.900;4.672;2024-02-16T08:32:10;48.70;;;44.58;;
9801;SDS011;4940;50.900;4.672;2024-02-16T08:34:38;51.47;;;46.97;;
9801;SDS011;4940;50.900;4.672;2024-02-16T08:37:06;50.20;;;46.15;;
9801;SDS011;4940;50.900;4.672;2024-02-16T08:39:33;54.15;;;49.50;;
9801;SDS011;4940;50.900;4.672;2024-02-16T08:42:00;57.58;;;52.38;;
9801;SDS011;4940;50.900;4.672;2024-02-16T08:44:28;57.45;;;52.35;;
9801;SDS011;4940;50.900;4.672;2024-02-16T08:46:55;60.88;;;55.47;;
9801;SDS011;4940;50.900;4.672;2024-02-16T08:49:23;60.45;;;55.15;;
9801;SDS011;4940;50.900;4.672;2024-02-16T08:51:52;64.53;;;58.83;;
9801;SDS011;4940;50.900;4.672;2024-02-16T08:54:19;59.40;;;54.10;;
9801;SDS011;4940;50.900;4.672;2024-02-16T08:56:47;58.28;;;53.08;;
9801;SDS011;4940;50.900;4.672;2024-02-16T08:59:14;59.67;;;54.28;;
9801;SDS011;4940;50.900;4.672;2024-02-16T09:01:42;61.42;;;56.00;;
9801;SDS011;4940;50.900;4.672;2024-02-16T09:04:09;59.65;;;54.33;;
9801;SDS011;4940;50.900;4.672;2024-02-16T09:06:37;57.13;;;51.83;;
9801;SDS011;4940;50.900;4.672;2024-02-16T09:09:06;64.57;;;59.05;;
9801;SDS011;4940;50.900;4.672;2024-02-16T09:11:33;58.63;;;53.53;;
9801;SDS011;4940;50.900;4.672;2024-02-16T09:14:00;57.67;;;52.58;;
9801;SDS011;4940;50.900;4.672;2024-02-16T09:16:28;54.53;;;49.42;;
9801;SDS011;4940;50.900;4.672;2024-02-16T09:18:57;52.42;;;47.42;;
9801;SDS011;4940;50.900;4.672;2024-02-16T09:21:25;53.17;;;48.38;;
9801;SDS011;4940;50.900;4.672;2024-02-16T09:23:56;52.47;;;47.70;;
9801;SDS011;4940;50.900;4.672;2024-02-16T09:26:27;50.35;;;45.75;;
9801;SDS011;4940;50.900;4.672;2024-02-16T09:28:55;51.55;;;46.95;;
9801;SDS011;4940;50.900;4.672;2024-02-16T09:31:23;51.88;;;47.28;;
9801;SDS011;4940;50.900;4.672;2024-02-16T09:33:51;50.58;;;46.28;;
9801;SDS011;4940;50.900;4.672;2024-02-16T09:36:19;50.15;;;45.70;;
9801;SDS011;4940;50.900;4.672;2024-02-16T09:38:47;52.88;;;48.40;;
9801;SDS011;4940;50.900;4.672;2024-02-16T09:41:14;50.35;;;46.05;;
9801;SDS011;4940;50.900;4.672;2024-02-16T09:43:43;50.47;;;46.05;;
9801;SDS011;4940;50.900;4.672;2024-02-16T09:46:10;50.17;;;45.75;;
9801;SDS011;4940;50.900;4.672;2024-02-16T09:48:39;49.42;;;45.00;;
9801;SDS011;4940;50.900;4.672;2024-02-16T09:51:09;53.38;;;48.72;;
9801;SDS011;4940;50.900;4.672;2024-02-16T09:53:36;49.13;;;45.03;;
9801;SDS011;4940;50.900;4.672;2024-02-16T09:56:05;46.92;;;43.03;;
9801;SDS011;4940;50.900;4.672;2024-02-16T09:58:34;49.67;;;45.42;;
9801;SDS011;4940;50.900;4.672;2024-02-16T10:01:03;49.67;;;44.92;;
9801;SDS011;4940;50.900;4.672;2024-02-16T10:03:31;48.17;;;43.97;;
9801;SDS011;4940;50.900;4.672;2024-02-16T10:06:05;49.20;;;44.80;;
9801;SDS011;4940;50.900;4.672;2024-02-16T10:08:33;49.00;;;44.88;;
9801;SDS011;4940;50.900;4.672;2024-02-16T10:11:01;51.90;;;47.42;;
9801;SDS011;4940;50.900;4.672;2024-02-16T10:13:29;50.17;;;45.95;;
9801;SDS011;4940;50.900;4.672;2024-02-16T10:16:07;49.60;;;45.17;;
9801;SDS011;4940;50.900;4.672;2024-02-16T10:18:36;54.17;;;49.78;;
9801;SDS011;4940;50.900;4.672;2024-02-16T10:21:04;50.95;;;46.60;;
9801;SDS011;4940;50.900;4.672;2024-02-16T10:23:33;53.88;;;49.35;;
9801;SDS011;4940;50.900;4.672;2024-02-16T10:26:00;54.33;;;49.42;;
9801;SDS011;4940;50.900;4.672;2024-02-16T10:28:28;51.28;;;46.72;;
9801;SDS011;4940;50.900;4.672;2024-02-16T10:30:57;52.70;;;47.70;;
9801;SDS011;4940;50.900;4.672;2024-02-16T10:33:28;55.50;;;50.63;;
9801;SDS011;4940;50.900;4.672;2024-02-16T10:35:55;55.50;;;50.50;;
9801;SDS011;4940;50.900;4.672;2024-02-16T10:38:24;55.88;;;50.95;;
9801;SDS011;4940;50.900;4.672;2024-02-16T10:40:53;54.85;;;50.05;;
9801;SDS011;4940;50.900;4.672;2024-02-16T10:43:22;54.55;;;49.35;;
9801;SDS011;4940;50.900;4.672;2024-02-16T10:45:51;50.72;;;46.15;;
9801;SDS011;4940;50.900;4.672;2024-02-16T10:48:19;52.38;;;48.08;;
9801;SDS011;4940;50.900;4.672;2024-02-16T10:50:47;49.10;;;44.80;;
9801;SDS011;4940;50.900;4.672;2024-02-16T10:53:19;50.08;;;45.53;;
9801;SDS011;4940;50.900;4.672;2024-02-16T10:55:49;49.55;;;45.53;;
9801;SDS011;4940;50.900;4.672;2024-02-16T10:58:17;49.70;;;45.42;;
9801;SDS011;4940;50.900;4.672;2024-02-16T11:00:51;51.10;;;46.50;;
9801;SDS011;4940;50.900;4.672;2024-02-16T11:03:21;50.13;;;45.83;;
9801;SDS011;4940;50.900;4.672;2024-02-16T11:05:53;51.35;;;47.20;;
9801;SDS011;4940;50.900;4.672;2024-02-16T11:08:23;53.60;;;48.85;;
9801;SDS011;4940;50.900;4.672;2024-02-16T11:10:56;52.72;;;48.13;;
9801;SDS011;4940;50.900;4.672;2024-02-16T11:13:24;52.78;;;48.15;;
9801;SDS011;4940;50.900;4.672;2024-02-16T11:15:58;53.92;;;49.22;;
9801;SDS011;4940;50.900;4.672;2024-02-16T11:18:28;55.00;;;50.30;;
9801;SDS011;4940;50.900;4.672;2024-02-16T11:20:59;57.33;;;52.08;;
9801;SDS011;4940;50.900;4.672;2024-02-16T11:23:27;54.50;;;49.67;;
9801;SDS011;4940;50.900;4.672;2024-02-16T11:25:59;55.58;;;50.60;;
9801;SDS011;4940;50.900;4.672;2024-02-16T11:28:28;55.42;;;50.35;;
9801;SDS011;4940;50.900;4.672;2024-02-16T11:30:57;54.55;;;49.75;;
9801;SDS011;4940;50.900;4.672;2024-02-16T11:33:25;55.55;;;50.78;;
9801;SDS011;4940;50.900;4.672;2024-02-16T11:35:53;57.55;;;52.28;;
9801;SDS011;4940;50.900;4.672;2024-02-16T11:38:23;58.60;;;53.22;;
9801;SDS011;4940;50.900;4.672;2024-02-16T11:40:54;57.33;;;52.58;;
9801;SDS011;4940;50.900;4.672;2024-02-16T11:43:22;56.67;;;51.63;;
9801;SDS011;4940;50.900;4.672;2024-02-16T11:45:50;58.95;;;54.03;;
9801;SDS011;4940;50.900;4.672;2024-02-16T11:48:21;56.35;;;51.30;;
9801;SDS011;4940;50.900;4.672;2024-02-16T11:50:49;58.30;;;51.30;;
9801;SDS011;4940;50.900;4.672;2024-02-16T11:53:27;55.80;;;50.20;;
9801;SDS011;4940;50.900;4.672;2024-02-16T11:55:55;56.00;;;50.53;;
9801;SDS011;4940;50.900;4.672;2024-02-16T11:58:22;58.85;;;53.22;;
9801;SDS011;4940;50.900;4.672;2024-02-16T12:00:51;59.33;;;53.72;;
9801;SDS011;4940;50.900;4.672;2024-02-16T12:03:18;64.88;;;58.85;;
9801;SDS011;4940;50.900;4.672;2024-02-16T12:05:52;61.97;;;56.00;;
9801;SDS011;4940;50.900;4.672;2024-02-16T12:08:19;65.90;;;59.60;;
9801;SDS011;4940;50.900;4.672;2024-02-16T12:10:49;62.40;;;56.72;;
9801;SDS011;4940;50.900;4.672;2024-02-16T12:13:17;67.68;;;61.38;;
9801;SDS011;4940;50.900;4.672;2024-02-16T12:15:45;66.47;;;60.42;;
9801;SDS011;4940;50.900;4.672;2024-02-16T12:18:19;66.63;;;60.55;;
9801;SDS011;4940;50.900;4.672;2024-02-16T12:20:56;68.90;;;62.65;;
9801;SDS011;4940;50.900;4.672;2024-02-16T12:23:24;70.55;;;64.22;;
9801;SDS011;4940;50.900;4.672;2024-02-16T12:25:53;70.22;;;64.20;;
9801;SDS011;4940;50.900;4.672;2024-02-16T12:28:23;67.90;;;61.92;;
9801;SDS011;4940;50.900;4.672;2024-02-16T12:30:51;62.10;;;56.40;;
9801;SDS011;4940;50.900;4.672;2024-02-16T12:33:19;61.85;;;55.85;;
9801;SDS011;4940;50.900;4.672;2024-02-16T12:35:46;57.92;;;52.33;;
9801;SDS011;4940;50.900;4.672;2024-02-16T12:38:14;58.40;;;52.90;;
9801;SDS011;4940;50.900;4.672;2024-02-16T12:40:42;59.05;;;53.22;;
9801;SDS011;4940;50.900;4.672;2024-02-16T12:43:11;60.65;;;54.65;;
9801;SDS011;4940;50.900;4.672;2024-02-16T12:45:39;68.45;;;62.15;;
9801;SDS011;4940;50.900;4.672;2024-02-16T12:48:07;68.80;;;62.15;;
9801;SDS011;4940;50.900;4.672;2024-02-16T12:50:35;72.93;;;65.95;;
9801;SDS011;4940;50.900;4.672;2024-02-16T12:53:04;71.93;;;64.88;;
9801;SDS011;4940;50.900;4.672;2024-02-16T12:55:32;74.53;;;67.70;;
9801;SDS011;4940;50.900;4.672;2024-02-16T12:57:59;70.65;;;64.18;;
9801;SDS011;4940;50.900;4.672;2024-02-16T13:00:28;72.20;;;65.55;;
9801;SDS011;4940;50.900;4.672;2024-02-16T13:02:55;74.60;;;67.80;;
9801;SDS011;4940;50.900;4.672;2024-02-16T13:05:23;74.25;;;67.57;;
9801;SDS011;4940;50.900;4.672;2024-02-16T13:07:50;75.40;;;68.50;;
9801;SDS011;4940;50.900;4.672;2024-02-16T13:10:18;68.78;;;62.28;;
9801;SDS011;4940;50.900;4.672;2024-02-16T13:12:45;70.57;;;63.92;;
9801;SDS011;4940;50.900;4.672;2024-02-16T13:15:13;68.13;;;61.90;;
9801;SDS011;4940;50.900;4.672;2024-02-16T13:17:42;73.90;;;67.15;;
9801;SDS011;4940;50.900;4.672;2024-02-16T13:20:09;68.97;;;62.30;;
9801;SDS011;4940;50.900;4.672;2024-02-16T13:22:37;72.20;;;65.40;;
9801;SDS011;4940;50.900;4.672;2024-02-16T13:25:04;73.35;;;66.75;;
9801;SDS011;4940;50.900;4.672;2024-02-16T13:27:32;70.53;;;64.03;;
9801;SDS011;4940;50.900;4.672;2024-02-16T13:30:00;65.53;;;59.22;;
9801;SDS011;4940;50.900;4.672;2024-02-16T13:32:27;66.15;;;59.80;;
9801;SDS011;4940;50.900;4.672;2024-02-16T13:34:56;69.13;;;62.53;;
9801;SDS011;4940;50.900;4.672;2024-02-16T13:37:24;68.90;;;62.40;;
9801;SDS011;4940;50.900;4.672;2024-02-16T13:39:51;72.05;;;65.38;;
9801;SDS011;4940;50.900;4.672;2024-02-16T13:42:19;76.22;;;69.32;;
9801;SDS011;4940;50.900;4.672;2024-02-16T13:44:47;73.22;;;66.35;;
9801;SDS011;4940;50.900;4.672;2024-02-16T13:47:14;70.22;;;63.63;;
9801;SDS011;4940;50.900;4.672;2024-02-16T13:49:42;76.95;;;70.05;;
9801;SDS011;4940;50.900;4.672;2024-02-16T13:52:10;87.22;;;79.55;;
9801;SDS011;4940;50.900;4.672;2024-02-16T13:54:38;73.75;;;66.78;;
9801;SDS011;4940;50.900;4.672;2024-02-16T13:57:05;76.90;;;69.82;;
9801;SDS011;4940;50.900;4.672;2024-02-16T13:59:33;79.10;;;71.93;;
9801;SDS011;4940;50.900;4.672;2024-02-16T14:02:00;76.63;;;69.30;;
9801;SDS011;4940;50.900;4.672;2024-02-16T14:04:28;79.22;;;71.95;;
9801;SDS011;4940;50.900;4.672;2024-02-16T14:06:56;84.90;;;77.30;;
9801;SDS011;4940;50.900;4.672;2024-02-16T14:09:24;72.68;;;65.70;;
9801;SDS011;4940;50.900;4.672;2024-02-16T14:11:52;77.00;;;69.97;;
9801;SDS011;4940;50.900;4.672;2024-02-16T14:14:21;78.57;;;71.32;;
9801;SDS011;4940;50.900;4.672;2024-02-16T14:16:48;75.32;;;68.13;;
9801;SDS011;4940;50.900;4.672;2024-02-16T14:19:16;75.95;;;68.88;;
9801;SDS011;4940;50.900;4.672;2024-02-16T14:21:43;73.22;;;66.13;;
9801;SDS011;4940;50.900;4.672;2024-02-16T14:24:12;75.15;;;68.13;;
9801;SDS011;4940;50.900;4.672;2024-02-16T14:26:42;75.60;;;68.68;;
9801;SDS011;4940;50.900;4.672;2024-02-16T14:29:10;77.53;;;70.60;;
9801;SDS011;4940;50.900;4.672;2024-02-16T14:31:37;71.35;;;64.47;;
9801;SDS011;4940;50.900;4.672;2024-02-16T14:34:05;67.38;;;60.83;;
9801;SDS011;4940;50.900;4.672;2024-02-16T14:36:32;70.88;;;64.07;;
9801;SDS011;4940;50.900;4.672;2024-02-16T14:38:59;68.75;;;62.15;;
9801;SDS011;4940;50.900;4.672;2024-02-16T14:41:27;66.70;;;60.20;;
9801;SDS011;4940;50.900;4.672;2024-02-16T14:43:56;61.58;;;55.63;;
9801;SDS011;4940;50.900;4.672;2024-02-16T14:46:25;68.72;;;62.08;;
9801;SDS011;4940;50.900;4.672;2024-02-16T14:48:53;62.70;;;57.00;;
9801;SDS011;4940;50.900;4.672;2024-02-16T14:51:20;63.92;;;57.92;;
9801;SDS011;4940;50.900;4.672;2024-02-16T14:53:47;63.30;;;57.53;;
9801;SDS011;4940;50.900;4.672;2024-02-16T14:56:15;65.00;;;58.95;;
9801;SDS011;4940;50.900;4.672;2024-02-16T14:58:47;66.93;;;60.63;;